Time;durP1;ratioP1;P1;durP2;ratioP2;P2;SDS_P1;SDS_P2;PMS_P1;PMS_P2;Temp;Humidity;BMP_temperature;BMP_pressure;BME280_temperature;BME280_humidity;BME280_pressure;Samples;Min_cycle;Max_cycle;Signal;HPM_P1;HPM_P2
2024/01/08 00:02:06;;;;;;;0.30;0.30;;;-2.00;99.90;;;;;;5079322;28;20532;-80
2024/01/08 00:04:33;;;;;;;0.30;0.30;;;-2.10;99.90;;;;;;5078530;28;20483;-81
2024/01/08 00:07:00;;;;;;;0.40;0.40;;;-2.10;99.90;;;;;;5079265;28;20893;-81
2024/01/08 00:09:26;;;;;;;0.40;0.40;;;-2.10;99.90;;;;;;5079065;28;20443;-80
2024/01/08 00:11:53;;;;;;;1.53;1.43;;;-2.10;99.90;;;;;;5079033;28;20961;-80
2024/01/08 00:14:20;;;;;;;0.80;0.60;;;-2.00;99.90;;;;;;5078797;28;20441;-80
2024/01/08 00:16:47;;;;;;;0.30;0.30;;;-2.10;99.90;;;;;;5078658;28;20928;-80
2024/01/08 00:19:15;;;;;;;0.30;0.30;;;-2.10;99.90;;;;;;5078562;28;20449;-80
2024/01/08 00:21:42;;;;;;;0.33;0.33;;;-2.10;99.90;;;;;;5078215;28;20453;-80
2024/01/08 00:24:09;;;;;;;0.53;0.53;;;-2.20;99.90;;;;;;5078268;28;20451;-80
2024/01/08 00:26:36;;;;;;;0.53;0.40;;;-2.30;99.90;;;;;;5078061;28;20535;-80
2024/01/08 00:29:03;;;;;;;1.00;0.37;;;-2.20;99.90;;;;;;5078502;28;20896;-80
2024/01/08 00:31:29;;;;;;;0.50;0.50;;;-2.20;99.90;;;;;;5078147;28;20415;-80
2024/01/08 00:33:56;;;;;;;0.40;0.40;;;-2.10;99.90;;;;;;5078800;28;20452;-81
2024/01/08 00:36:25;;;;;;;0.50;0.50;;;-2.00;99.90;;;;;;5079230;28;20408;-81
2024/01/08 00:38:51;;;;;;;0.87;0.60;;;-2.00;99.90;;;;;;5078629;28;20455;-80
2024/01/08 00:41:18;;;;;;;0.87;0.60;;;-2.00;99.90;;;;;;5079107;28;20431;-81
2024/01/08 00:43:45;;;;;;;0.40;0.40;;;-2.10;99.90;;;;;;5079146;28;20444;-81
2024/01/08 00:46:11;;;;;;;0.40;0.30;;;-2.20;99.90;;;;;;5078911;28;20448;-81
2024/01/08 00:48:38;;;;;;;0.40;0.30;;;-2.20;99.90;;;;;;5079116;28;20455;-80
2024/01/08 00:51:05;;;;;;;0.30;0.30;;;-2.20;99.90;;;;;;5079440;28;20453;-81
2024/01/08 00:53:33;;;;;;;0.30;0.30;;;-2.10;99.90;;;;;;5078979;28;20456;-80
2024/01/08 00:56:00;;;;;;;0.30;0.30;;;-2.20;99.90;;;;;;5078756;28;20420;-80
2024/01/08 00:58:28;;;;;;;0.40;0.40;;;-2.20;99.90;;;;;;5078160;28;20468;-80
2024/01/08 01:00:55;;;;;;;0.30;0.30;;;-2.20;99.90;;;;;;5078478;28;20489;-81
2024/01/08 01:03:22;;;;;;;0.67;0.47;;;-2.20;99.90;;;;;;5078276;28;20911;-80
2024/01/08 01:05:49;;;;;;;0.47;0.47;;;-2.20;99.90;;;;;;5077411;28;20489;-80
2024/01/08 01:08:16;;;;;;;0.83;0.70;;;-2.20;99.90;;;;;;5080925;28;20456;-80
2024/01/08 01:10:44;;;;;;;0.43;0.43;;;-2.10;99.90;;;;;;5081080;28;20507;-81
2024/01/08 01:13:11;;;;;;;1.33;0.93;;;-2.10;99.90;;;;;;5081600;28;20459;-80
2024/01/08 01:15:37;;;;;;;0.40;0.40;;;-2.10;99.90;;;;;;5082234;28;20823;-80
2024/01/08 01:18:05;;;;;;;2.00;0.60;;;-2.10;99.90;;;;;;5081882;28;20451;-80
2024/01/08 01:20:31;;;;;;;1.00;0.50;;;-2.20;99.90;;;;;;5080638;28;20918;-80
2024/01/08 01:22:58;;;;;;;0.47;0.47;;;-2.10;99.90;;;;;;5080481;28;20444;-80
2024/01/08 01:25:25;;;;;;;0.70;0.70;;;-2.00;99.90;;;;;;5079932;28;20508;-80
2024/01/08 01:27:53;;;;;;;0.30;0.30;;;-2.00;99.90;;;;;;5079657;28;20461;-80
2024/01/08 01:30:19;;;;;;;1.07;0.63;;;-2.10;99.90;;;;;;5079322;28;20453;-80
2024/01/08 01:32:46;;;;;;;0.30;0.30;;;-2.10;99.90;;;;;;5079401;28;20793;-80
2024/01/08 01:35:13;;;;;;;0.30;0.30;;;-2.10;99.90;;;;;;5079275;28;20426;-80
2024/01/08 01:37:41;;;;;;;1.63;0.70;;;-2.20;99.90;;;;;;5078625;28;20448;-80
2024/01/08 01:40:09;;;;;;;0.30;0.30;;;-2.20;99.90;;;;;;5078669;28;20448;-80
2024/01/08 01:42:36;;;;;;;0.40;0.40;;;-2.20;99.90;;;;;;5078962;28;20431;-80
2024/01/08 01:45:05;;;;;;;0.30;0.30;;;-2.10;99.90;;;;;;5078383;28;20477;-80
2024/01/08 01:47:32;;;;;;;1.97;1.70;;;-2.10;99.90;;;;;;5078342;28;20421;-80
2024/01/08 01:49:59;;;;;;;0.40;0.40;;;-2.10;99.90;;;;;;5078029;28;20445;-80
2024/01/08 01:52:27;;;;;;;4.13;2.73;;;-2.20;99.90;;;;;;5077646;28;20437;-80
2024/01/08 01:54:54;;;;;;;0.70;0.70;;;-2.10;99.90;;;;;;5076861;28;20778;-80
2024/01/08 01:57:21;;;;;;;0.40;0.40;;;-2.30;99.90;;;;;;5076462;28;20439;-80
2024/01/08 01:59:48;;;;;;;0.97;0.63;;;-2.30;99.90;;;;;;5076437;28;20441;-80
2024/01/08 02:02:17;;;;;;;0.30;0.30;;;-2.30;99.90;;;;;;5076757;28;20452;-80
2024/01/08 02:04:44;;;;;;;1.23;1.13;;;-2.30;99.90;;;;;;5076995;28;20555;-80
2024/01/08 02:07:11;;;;;;;0.70;0.70;;;-2.40;99.90;;;;;;5083605;28;20480;-80
2024/01/08 02:09:38;;;;;;;0.30;0.30;;;-2.40;99.90;;;;;;5079733;28;20487;-80
2024/01/08 02:12:06;;;;;;;1.40;1.40;;;-2.40;99.90;;;;;;5088370;28;20475;-80
2024/01/08 02:14:33;;;;;;;0.30;0.30;;;-2.30;99.90;;;;;;5081086;28;20451;-80
2024/01/08 02:17:00;;;;;;;0.30;0.30;;;-2.30;99.90;;;;;;5081685;28;20878;-80
2024/01/08 02:19:28;;;;;;;0.50;0.50;;;-2.30;99.90;;;;;;5078873;28;20476;-80
2024/01/08 02:21:55;;;;;;;0.60;0.60;;;-2.30;99.90;;;;;;5078276;28;20433;-80
2024/01/08 02:24:23;;;;;;;0.80;0.80;;;-2.30;99.90;;;;;;5082006;28;20493;-80
2024/01/08 02:26:50;;;;;;;1.43;1.33;;;-2.30;99.90;;;;;;5087757;28;20445;-80
2024/01/08 02:29:19;;;;;;;0.40;0.40;;;-2.30;99.90;;;;;;5091548;28;20453;-80
2024/01/08 02:31:46;;;;;;;0.30;0.30;;;-2.30;99.90;;;;;;5087082;28;20424;-80
2024/01/08 02:34:12;;;;;;;0.40;0.40;;;-2.30;99.90;;;;;;5081827;28;20452;-80
2024/01/08 02:36:39;;;;;;;0.37;0.37;;;-2.30;99.90;;;;;;5082496;28;20441;-80
2024/01/08 02:39:06;;;;;;;1.17;0.40;;;-2.30;99.90;;;;;;5081051;28;20464;-80
2024/01/08 02:41:34;;;;;;;0.83;0.50;;;-2.30;99.90;;;;;;5081161;28;20412;-80
2024/01/08 02:44:01;;;;;;;0.30;0.30;;;-2.40;99.90;;;;;;5081433;28;20415;-80
2024/01/08 02:46:27;;;;;;;0.50;0.40;;;-2.40;99.90;;;;;;5081013;28;20455;-80
2024/01/08 02:48:54;;;;;;;0.30;0.20;;;-2.40;99.90;;;;;;5080668;28;20457;-80
2024/01/08 02:51:21;;;;;;;1.17;0.97;;;-2.50;99.90;;;;;;5080034;28;20423;-80
2024/01/08 02:53:48;;;;;;;0.30;0.30;;;-2.50;99.90;;;;;;5080675;28;20441;-80
2024/01/08 02:56:21;;;;;;;0.67;0.60;;;-2.40;99.90;;;;;;5081765;28;20423;-80
2024/01/08 02:58:50;;;;;;;0.33;0.33;;;-2.40;99.90;;;;;;5081006;28;20439;-80
2024/01/08 03:01:17;;;;;;;2.83;0.67;;;-2.40;99.90;;;;;;5081085;28;20838;-80
2024/01/08 03:03:44;;;;;;;0.33;0.33;;;-2.50;99.90;;;;;;5080581;28;20445;-80
2024/01/08 03:06:10;;;;;;;1.07;0.73;;;-2.50;99.90;;;;;;5080896;28;20475;-80
2024/01/08 03:08:37;;;;;;;0.47;0.47;;;-2.40;99.90;;;;;;5081286;28;20453;-81
2024/01/08 03:11:04;;;;;;;0.43;0.43;;;-2.40;99.90;;;;;;5085047;28;20445;-81
2024/01/08 03:13:31;;;;;;;0.30;0.30;;;-2.30;99.90;;;;;;5084472;28;20420;-80
2024/01/08 03:15:59;;;;;;;0.30;0.30;;;-2.30;99.90;;;;;;5083967;28;20436;-80
2024/01/08 03:18:25;;;;;;;0.60;0.60;;;-2.30;99.90;;;;;;5082625;28;20461;-80
2024/01/08 03:20:52;;;;;;;0.30;0.30;;;-2.30;99.90;;;;;;5082788;28;20444;-81
2024/01/08 03:23:19;;;;;;;0.50;0.50;;;-2.40;99.90;;;;;;5082754;28;20423;-80
2024/01/08 03:25:45;;;;;;;0.93;0.40;;;-2.50;99.90;;;;;;5082274;28;20462;-80
2024/01/08 03:28:13;;;;;;;0.40;0.40;;;-2.50;99.90;;;;;;5082232;28;20449;-80
2024/01/08 03:30:40;;;;;;;0.77;0.77;;;-2.50;99.90;;;;;;5082402;28;20544;-80
2024/01/08 03:33:09;;;;;;;0.50;0.30;;;-2.50;99.90;;;;;;5082441;28;20423;-80
2024/01/08 03:35:35;;;;;;;0.73;0.73;;;-2.40;99.90;;;;;;5081529;28;20502;-80
2024/01/08 03:38:02;;;;;;;2.93;0.40;;;-2.40;99.90;;;;;;5082230;28;20473;-80
2024/01/08 03:40:29;;;;;;;0.30;0.30;;;-2.40;99.90;;;;;;5081336;28;20427;-80
2024/01/08 03:42:56;;;;;;;0.40;0.33;;;-2.40;99.90;;;;;;5081745;28;20444;-80
2024/01/08 03:45:22;;;;;;;0.80;0.30;;;-2.40;99.90;;;;;;5082213;28;20487;-80
2024/01/08 03:47:49;;;;;;;0.30;0.30;;;-2.40;99.90;;;;;;5081110;28;21012;-80
2024/01/08 03:50:17;;;;;;;1.40;1.30;;;-2.30;99.90;;;;;;5080762;28;20423;-80
2024/01/08 03:52:44;;;;;;;0.40;0.40;;;-2.20;99.90;;;;;;5080574;28;20476;-80
2024/01/08 03:55:10;;;;;;;0.30;0.30;;;-2.20;99.90;;;;;;5080414;28;20441;-80
2024/01/08 03:57:37;;;;;;;0.50;0.50;;;-2.30;99.90;;;;;;5080970;28;20456;-80
2024/01/08 04:00:05;;;;;;;0.77;0.50;;;-2.30;99.90;;;;;;5080298;28;20442;-81
2024/01/08 04:02:31;;;;;;;0.67;0.63;;;-2.40;99.90;;;;;;5080108;28;20452;-80
2024/01/08 04:04:58;;;;;;;2.27;0.93;;;-2.40;99.90;;;;;;5079964;28;20445;-81
2024/01/08 04:07:26;;;;;;;0.30;0.30;;;-2.40;99.90;;;;;;5079350;28;20444;-80
2024/01/08 04:09:53;;;;;;;0.80;0.67;;;-2.40;99.90;;;;;;5079414;28;20447;-80
2024/01/08 04:12:20;;;;;;;0.30;0.30;;;-2.40;99.90;;;;;;5078757;28;20441;-80
2024/01/08 04:14:46;;;;;;;1.60;0.97;;;-2.40;99.90;;;;;;5077724;28;20804;-80
2024/01/08 04:17:13;;;;;;;0.40;0.40;;;-2.50;99.90;;;;;;5078138;28;20446;-81
2024/01/08 04:19:40;;;;;;;0.50;0.50;;;-2.40;99.90;;;;;;5077279;28;20976;-80
2024/01/08 04:22:06;;;;;;;1.63;0.77;;;-2.40;99.90;;;;;;5077917;28;20449;-80
2024/01/08 04:24:34;;;;;;;0.30;0.20;;;-2.30;99.90;;;;;;5078070;28;20926;-80
2024/01/08 04:27:01;;;;;;;0.70;0.70;;;-2.30;99.90;;;;;;5078171;28;20484;-80
2024/01/08 04:29:29;;;;;;;5.60;0.63;;;-2.40;99.90;;;;;;5077097;28;20468;-80
2024/01/08 04:31:56;;;;;;;0.40;0.40;;;-2.30;99.90;;;;;;5078596;28;20814;-80
2024/01/08 04:34:23;;;;;;;0.77;0.77;;;-2.40;99.90;;;;;;5078273;28;20488;-80
2024/01/08 04:36:50;;;;;;;0.30;0.30;;;-2.40;99.90;;;;;;5076555;28;20441;-80
2024/01/08 04:39:16;;;;;;;0.53;0.53;;;-2.40;99.90;;;;;;5077030;28;20460;-80
2024/01/08 04:41:44;;;;;;;2.10;0.90;;;-2.40;99.90;;;;;;5077713;28;20445;-80
2024/01/08 04:44:11;;;;;;;0.93;0.57;;;-2.40;99.90;;;;;;5076623;28;20408;-80
2024/01/08 04:46:38;;;;;;;0.30;0.30;;;-2.40;99.90;;;;;;5075885;28;20455;-80
2024/01/08 04:49:05;;;;;;;0.40;0.40;;;-2.40;99.90;;;;;;5076424;28;20424;-80
2024/01/08 04:51:33;;;;;;;0.30;0.30;;;-2.50;99.90;;;;;;5076703;28;20418;-81
2024/01/08 04:54:00;;;;;;;0.40;0.40;;;-2.60;99.90;;;;;;5076539;28;20895;-80
2024/01/08 04:56:28;;;;;;;0.30;0.30;;;-2.60;99.90;;;;;;5077111;28;20449;-80
2024/01/08 04:58:56;;;;;;;0.30;0.20;;;-2.50;99.90;;;;;;5076828;28;20493;-80
2024/01/08 05:01:22;;;;;;;0.40;0.40;;;-2.60;99.90;;;;;;5076730;28;20883;-80
2024/01/08 05:03:48;;;;;;;0.60;0.50;;;-2.60;99.90;;;;;;5076632;28;20493;-80
2024/01/08 05:06:14;;;;;;;0.30;0.30;;;-2.60;99.90;;;;;;5076020;28;20230;-80
2024/01/08 05:08:41;;;;;;;0.40;0.40;;;-2.50;99.90;;;;;;5076180;28;20435;-80
2024/01/08 05:11:08;;;;;;;0.30;0.30;;;-2.50;99.90;;;;;;5076523;28;20449;-80
2024/01/08 05:13:35;;;;;;;0.93;0.93;;;-2.70;99.90;;;;;;5075876;28;20448;-80
2024/01/08 05:16:04;;;;;;;0.30;0.30;;;-2.70;99.90;;;;;;5077420;28;20441;-81
2024/01/08 05:18:31;;;;;;;0.40;0.40;;;-2.70;99.90;;;;;;5076939;28;20469;-81
2024/01/08 05:20:57;;;;;;;1.03;0.93;;;-2.70;99.90;;;;;;5076977;28;21003;-80
2024/01/08 05:23:24;;;;;;;0.73;0.53;;;-2.70;99.90;;;;;;5078683;28;20446;-81
2024/01/08 05:25:51;;;;;;;0.30;0.30;;;-2.70;99.90;;;;;;5078453;28;20504;-81
2024/01/08 05:28:18;;;;;;;2.00;0.50;;;-2.60;99.90;;;;;;5078679;28;20536;-81
2024/01/08 05:30:44;;;;;;;0.30;0.30;;;-2.60;99.90;;;;;;5078518;28;20445;-81
2024/01/08 05:33:12;;;;;;;0.70;0.70;;;-2.50;99.90;;;;;;5078036;28;20422;-81
2024/01/08 05:35:40;;;;;;;4.77;1.70;;;-2.50;99.90;;;;;;5078824;28;20423;-81
2024/01/08 05:38:07;;;;;;;0.30;0.20;;;-2.50;99.90;;;;;;5082648;28;20530;-81
2024/01/08 05:40:34;;;;;;;1.00;0.80;;;-2.60;99.90;;;;;;5083729;28;20427;-81
2024/01/08 05:43:00;;;;;;;0.30;0.30;;;-2.60;99.90;;;;;;5079846;28;20451;-81
2024/01/08 05:45:27;;;;;;;1.20;1.10;;;-2.70;99.90;;;;;;5078119;28;20952;-81
2024/01/08 05:47:54;;;;;;;0.57;0.57;;;-2.60;99.90;;;;;;5078423;28;20467;-81
2024/01/08 05:50:25;;;;;;;0.33;0.33;;;-2.60;99.90;;;;;;5078296;28;20444;-81
2024/01/08 05:52:52;;;;;;;0.87;0.87;;;-2.50;99.90;;;;;;5080170;28;20480;-81
2024/01/08 05:55:19;;;;;;;0.30;0.30;;;-2.50;99.90;;;;;;5080007;28;20918;-81
2024/01/08 05:57:46;;;;;;;0.30;0.30;;;-2.50;99.90;;;;;;5079562;28;20432;-81
2024/01/08 06:00:14;;;;;;;0.30;0.30;;;-2.50;99.90;;;;;;5078641;28;20786;-81
2024/01/08 06:02:41;;;;;;;1.90;0.63;;;-2.60;99.90;;;;;;5078652;28;20463;-81
2024/01/08 06:05:09;;;;;;;0.30;0.30;;;-2.70;99.90;;;;;;5078182;28;20510;-81
2024/01/08 06:07:37;;;;;;;0.57;0.57;;;-2.70;99.90;;;;;;5078119;28;20496;-81
2024/01/08 06:10:05;;;;;;;0.40;0.40;;;-2.70;99.90;;;;;;5078496;28;20453;-81
2024/01/08 06:12:32;;;;;;;0.40;0.40;;;-2.70;99.90;;;;;;5077649;28;20514;-81
2024/01/08 06:14:59;;;;;;;1.17;0.40;;;-2.60;99.90;;;;;;5078259;28;20430;-81
2024/01/08 06:17:26;;;;;;;0.30;0.30;;;-2.60;99.90;;;;;;5079894;28;20449;-81
2024/01/08 06:19:52;;;;;;;0.30;0.30;;;-2.60;99.90;;;;;;5078449;28;20428;-81
2024/01/08 06:22:19;;;;;;;0.70;0.40;;;-2.60;99.90;;;;;;5078231;28;20420;-81
2024/01/08 06:24:47;;;;;;;0.30;0.20;;;-2.60;99.90;;;;;;5077848;28;20420;-81
2024/01/08 06:27:14;;;;;;;0.30;0.30;;;-2.60;99.90;;;;;;5078895;28;20815;-81
2024/01/08 06:29:41;;;;;;;0.30;0.30;;;-2.60;99.90;;;;;;5078274;28;20443;-81
2024/01/08 06:32:07;;;;;;;0.33;0.33;;;-2.50;99.90;;;;;;5079124;28;20448;-81
2024/01/08 06:34:34;;;;;;;0.60;0.60;;;-2.50;99.90;;;;;;5077585;28;20826;-81
2024/01/08 06:37:01;;;;;;;0.33;0.33;;;-2.70;99.90;;;;;;5077008;28;20441;-81
2024/01/08 06:39:28;;;;;;;0.50;0.50;;;-2.80;99.90;;;;;;5077468;28;20863;-81
2024/01/08 06:41:56;;;;;;;0.30;0.30;;;-2.80;99.90;;;;;;5076837;28;20427;-81
2024/01/08 06:44:22;;;;;;;0.30;0.30;;;-2.80;99.90;;;;;;5076991;28;20485;-81
2024/01/08 06:46:49;;;;;;;0.30;0.30;;;-2.80;99.90;;;;;;5077536;28;20454;-81
2024/01/08 06:49:16;;;;;;;0.30;0.30;;;-2.80;99.90;;;;;;5076088;28;20428;-80
2024/01/08 06:51:43;;;;;;;0.83;0.83;;;-2.80;99.90;;;;;;5076972;28;20428;-81
2024/01/08 06:54:10;;;;;;;0.30;0.30;;;-2.80;99.90;;;;;;5077180;28;20977;-81
2024/01/08 06:56:36;;;;;;;0.90;0.70;;;-2.80;99.90;;;;;;5076964;28;20441;-81
2024/01/08 06:59:05;;;;;;;0.40;0.40;;;-2.80;99.90;;;;;;5077388;28;20435;-81
2024/01/08 07:01:32;;;;;;;0.30;0.30;;;-2.80;99.90;;;;;;5077486;28;20920;-81
2024/01/08 07:03:59;;;;;;;0.40;0.40;;;-2.90;99.90;;;;;;5077282;28;20427;-80
2024/01/08 07:06:26;;;;;;;1.67;1.40;;;-2.90;99.90;;;;;;5076727;28;20492;-81
2024/01/08 07:08:53;;;;;;;0.30;0.30;;;-2.90;99.90;;;;;;5078046;28;20471;-80
2024/01/08 07:11:21;;;;;;;0.30;0.30;;;-2.90;99.90;;;;;;5078884;28;20476;-80
2024/01/08 07:13:47;;;;;;;0.77;0.77;;;-2.90;99.90;;;;;;5079535;28;20433;-80
2024/01/08 07:16:15;;;;;;;0.70;0.70;;;-2.90;99.90;;;;;;5079322;28;20937;-80
2024/01/08 07:18:42;;;;;;;1.07;0.70;;;-2.90;99.90;;;;;;5078569;28;20964;-80
2024/01/08 07:21:11;;;;;;;0.40;0.40;;;-2.90;99.90;;;;;;5082596;28;20426;-81
2024/01/08 07:23:38;;;;;;;0.30;0.30;;;-2.90;99.90;;;;;;5082898;28;20427;-81
2024/01/08 07:26:05;;;;;;;0.77;0.70;;;-3.00;99.90;;;;;;5082769;28;20419;-81
2024/01/08 07:28:32;;;;;;;0.60;0.60;;;-3.00;99.90;;;;;;5083304;28;20461;-81
2024/01/08 07:31:00;;;;;;;0.40;0.40;;;-2.90;99.90;;;;;;5083163;28;20426;-81
2024/01/08 07:33:28;;;;;;;0.50;0.50;;;-2.90;99.90;;;;;;5083626;28;21003;-81
2024/01/08 07:35:55;;;;;;;0.30;0.30;;;-2.80;99.90;;;;;;5082783;28;20445;-81
2024/01/08 07:38:22;;;;;;;0.50;0.50;;;-2.80;99.90;;;;;;5083219;28;20443;-81
2024/01/08 07:40:49;;;;;;;1.87;1.30;;;-2.80;99.90;;;;;;5082047;28;20787;-82
2024/01/08 07:43:16;;;;;;;0.30;0.30;;;-2.80;99.90;;;;;;5082589;28;20449;-81
2024/01/08 07:45:42;;;;;;;0.40;0.30;;;-2.80;99.90;;;;;;5082681;28;20852;-81
2024/01/08 07:48:09;;;;;;;0.70;0.70;;;-2.80;99.90;;;;;;5081138;28;20497;-81
2024/01/08 07:50:37;;;;;;;0.47;0.47;;;-2.80;99.90;;;;;;5079599;28;20415;-81
2024/01/08 07:53:05;;;;;;;0.30;0.30;;;-2.70;99.90;;;;;;5080550;28;20411;-81
2024/01/08 07:55:31;;;;;;;0.40;0.40;;;-2.70;99.90;;;;;;5080153;28;20415;-81
2024/01/08 07:57:59;;;;;;;0.30;0.30;;;-2.70;99.90;;;;;;5078767;28;20476;-80
2024/01/08 08:00:25;;;;;;;0.30;0.30;;;-2.70;99.90;;;;;;5078913;28;20765;-81
2024/01/08 08:02:52;;;;;;;1.50;0.80;;;-2.80;99.90;;;;;;5079514;28;20456;-81
2024/01/08 08:05:19;;;;;;;1.43;0.60;;;-2.80;99.90;;;;;;5078570;28;20774;-80
2024/01/08 08:07:47;;;;;;;0.40;0.40;;;-2.80;99.90;;;;;;5078056;28;20467;-80
2024/01/08 08:10:14;;;;;;;0.30;0.30;;;-2.90;99.90;;;;;;5078557;28;20422;-80
2024/01/08 08:12:41;;;;;;;1.70;0.90;;;-2.90;99.90;;;;;;5078809;28;20448;-81
2024/01/08 08:15:10;;;;;;;0.63;0.63;;;-2.90;99.90;;;;;;5078466;28;20443;-80
2024/01/08 08:17:39;;;;;;;0.30;0.30;;;-2.90;99.90;;;;;;5079372;28;20479;-81
2024/01/08 08:20:09;;;;;;;1.43;1.30;;;-2.90;99.90;;;;;;5079168;28;20434;-80
2024/01/08 08:22:37;;;;;;;0.30;0.30;;;-2.80;99.90;;;;;;5079371;28;20437;-81
2024/01/08 08:25:06;;;;;;;3.03;1.47;;;-2.90;99.90;;;;;;5078891;28;20436;-81
2024/01/08 08:27:34;;;;;;;0.40;0.40;;;-2.90;99.90;;;;;;5078521;28;20484;-81
2024/01/08 08:30:01;;;;;;;0.30;0.30;;;-3.00;99.90;;;;;;5078494;28;20454;-81
2024/01/08 08:32:28;;;;;;;0.63;0.63;;;-2.90;99.90;;;;;;5077874;28;20423;-81
2024/01/08 08:34:55;;;;;;;0.30;0.30;;;-3.00;99.90;;;;;;5077051;28;20455;-81
2024/01/08 08:37:21;;;;;;;0.50;0.50;;;-2.90;99.90;;;;;;5078342;28;20500;-81
2024/01/08 08:39:48;;;;;;;4.30;1.70;;;-2.90;99.90;;;;;;5078676;28;20391;-81
2024/01/08 08:42:16;;;;;;;0.40;0.40;;;-2.90;99.90;;;;;;5077656;28;20400;-81
2024/01/08 08:44:43;;;;;;;0.43;0.43;;;-2.90;99.90;;;;;;5077930;28;20419;-81
2024/01/08 08:47:10;;;;;;;0.50;0.50;;;-2.90;99.90;;;;;;5077618;28;20463;-81
2024/01/08 08:49:37;;;;;;;0.70;0.70;;;-2.00;99.90;;;;;;5077823;28;20441;-80
2024/01/08 08:52:04;;;;;;;0.83;0.83;;;-2.70;99.90;;;;;;5078084;28;20457;-81
2024/01/08 08:54:31;;;;;;;0.40;0.40;;;-2.50;99.90;;;;;;5077025;28;20936;-81
2024/01/08 08:56:58;;;;;;;2.67;0.63;;;-2.60;99.90;;;;;;5077035;28;20422;-81
2024/01/08 08:59:26;;;;;;;2.27;1.07;;;-2.60;99.90;;;;;;5077116;28;20444;-81
2024/01/08 09:01:53;;;;;;;0.33;0.33;;;-2.60;99.90;;;;;;5080259;28;20432;-81
2024/01/08 09:04:19;;;;;;;0.43;0.43;;;-2.60;99.90;;;;;;5081418;28;20426;-81
2024/01/08 09:06:46;;;;;;;0.47;0.47;;;-2.70;99.90;;;;;;5078795;28;20471;-81
2024/01/08 09:09:13;;;;;;;0.80;0.80;;;-2.60;99.90;;;;;;5079036;28;20461;-81
2024/01/08 09:11:40;;;;;;;0.30;0.20;;;-2.50;99.90;;;;;;5078583;28;20465;-81
2024/01/08 09:14:09;;;;;;;0.50;0.50;;;-2.60;99.90;;;;;;5078521;28;20785;-81
2024/01/08 09:16:38;;;;;;;0.60;0.60;;;-2.60;99.90;;;;;;5078663;28;20895;-81
2024/01/08 09:19:05;;;;;;;0.30;0.30;;;-2.60;99.90;;;;;;5078370;28;20470;-81
2024/01/08 09:21:32;;;;;;;0.87;0.87;;;-2.60;99.90;;;;;;5080568;28;20484;-81
2024/01/08 09:23:59;;;;;;;1.13;0.67;;;-2.60;99.90;;;;;;5082639;28;20456;-81
2024/01/08 09:26:25;;;;;;;0.43;0.43;;;-2.60;99.90;;;;;;5082046;28;20419;-81
2024/01/08 09:28:52;;;;;;;1.97;0.60;;;-2.60;99.90;;;;;;5081650;28;20901;-81
2024/01/08 09:31:20;;;;;;;0.30;0.30;;;-2.50;99.90;;;;;;5081680;28;20445;-81
2024/01/08 09:33:48;;;;;;;1.13;0.93;;;-2.50;99.90;;;;;;5080627;28;20423;-80
2024/01/08 09:36:15;;;;;;;1.80;1.23;;;-2.40;99.90;;;;;;5078326;28;20419;-80
2024/01/08 09:38:43;;;;;;;0.30;0.30;;;-2.40;99.90;;;;;;5078557;28;20439;-80
2024/01/08 09:41:12;;;;;;;0.30;0.30;;;-2.40;99.90;;;;;;5077893;28;20415;-80
2024/01/08 09:43:40;;;;;;;0.30;0.20;;;-2.30;99.90;;;;;;5077589;28;20442;-80
2024/01/08 09:46:09;;;;;;;0.50;0.50;;;-2.30;99.90;;;;;;5077237;28;20453;-80
2024/01/08 09:48:36;;;;;;;0.93;0.93;;;-2.30;99.90;;;;;;5077276;28;20495;-80
2024/01/08 09:51:05;;;;;;;0.40;0.40;;;-2.30;99.90;;;;;;5077989;28;20380;-81
2024/01/08 09:53:32;;;;;;;2.10;0.90;;;-2.30;99.90;;;;;;5077633;28;20427;-80
2024/01/08 09:56:00;;;;;;;0.57;0.57;;;-2.30;99.90;;;;;;5077647;28;20415;-80
2024/01/08 09:58:27;;;;;;;0.30;0.30;;;-2.40;99.90;;;;;;5077062;28;20580;-80
2024/01/08 10:00:54;;;;;;;2.53;0.60;;;-2.40;99.90;;;;;;5078045;28;20460;-79
2024/01/08 10:03:21;;;;;;;0.30;0.30;;;-2.40;99.90;;;;;;5078902;28;20431;-80
2024/01/08 10:05:48;;;;;;;0.30;0.30;;;-2.40;99.90;;;;;;5076736;28;20789;-80
2024/01/08 10:08:18;;;;;;;0.30;0.30;;;-2.40;99.90;;;;;;5076975;28;20491;-80
2024/01/08 10:10:45;;;;;;;0.30;0.30;;;-2.40;99.90;;;;;;5077268;28;20408;-80
2024/01/08 10:13:14;;;;;;;0.30;0.30;;;-2.30;99.90;;;;;;5077041;28;20441;-79
2024/01/08 10:15:46;;;;;;;0.40;0.40;;;-2.40;99.90;;;;;;5077158;28;20419;-80
2024/01/08 10:18:15;;;;;;;0.30;0.30;;;-2.40;99.90;;;;;;5076741;28;20464;-80
2024/01/08 10:20:44;;;;;;;0.97;0.97;;;-2.40;99.90;;;;;;5075471;28;20404;-78
2024/01/08 10:23:16;;;;;;;0.90;0.90;;;-2.40;99.90;;;;;;5073781;28;20423;-78
2024/01/08 10:25:50;;;;;;;0.40;0.40;;;-2.40;99.90;;;;;;5076256;28;20779;-79
2024/01/08 10:28:18;;;;;;;0.40;0.40;;;-2.40;99.90;;;;;;5076800;28;20848;-79
2024/01/08 10:30:45;;;;;;;0.77;0.73;;;-2.40;99.90;;;;;;5075874;28;20918;-80
2024/01/08 10:33:12;;;;;;;0.50;0.50;;;-2.40;99.90;;;;;;5076247;28;20419;-80
2024/01/08 10:35:41;;;;;;;0.30;0.30;;;-2.40;99.90;;;;;;5075996;28;20429;-80
2024/01/08 10:38:08;;;;;;;2.37;0.63;;;-2.30;99.90;;;;;;5075629;28;20461;-79
2024/01/08 10:40:35;;;;;;;0.57;0.57;;;-2.30;99.90;;;;;;5074451;28;20441;-79
2024/01/08 10:43:03;;;;;;;2.77;1.60;;;-2.20;99.90;;;;;;5075481;28;20408;-79
2024/01/08 10:45:30;;;;;;;0.70;0.40;;;-2.20;99.90;;;;;;5079498;28;20440;-79
2024/01/08 10:48:06;;;;;;;0.60;0.33;;;-2.10;99.90;;;;;;5077968;28;20499;-79
2024/01/08 10:50:37;;;;;;;1.60;1.33;;;-2.00;99.90;;;;;;5078478;28;20405;-79
2024/01/08 10:53:09;;;;;;;0.30;0.30;;;-2.00;99.90;;;;;;5077759;28;20433;-79
2024/01/08 10:55:39;;;;;;;0.40;0.40;;;-2.10;99.90;;;;;;5077459;28;20490;-79
2024/01/08 10:58:16;;;;;;;2.20;0.60;;;-2.20;99.90;;;;;;5076780;28;20424;-78
2024/01/08 11:00:43;;;;;;;1.27;1.00;;;-2.30;99.90;;;;;;5077206;28;20756;-81
2024/01/08 11:03:10;;;;;;;0.33;0.33;;;-2.40;99.90;;;;;;5076674;28;20908;-81
2024/01/08 11:05:38;;;;;;;0.40;0.40;;;-2.30;99.90;;;;;;5076562;28;20419;-81
2024/01/08 11:08:07;;;;;;;1.37;0.97;;;-2.30;99.90;;;;;;5077310;28;20470;-81
2024/01/08 11:10:34;;;;;;;1.07;0.97;;;-2.30;99.90;;;;;;5077070;28;20411;-82
2024/01/08 11:13:00;;;;;;;0.37;0.37;;;-2.30;99.90;;;;;;5076711;28;20985;-82
2024/01/08 11:15:29;;;;;;;0.50;0.50;;;-2.20;99.90;;;;;;5077476;28;20376;-79
2024/01/08 11:17:58;;;;;;;0.37;0.37;;;-2.20;99.90;;;;;;5079640;28;20465;-81
2024/01/08 11:20:45;;;;;;;0.50;0.50;;;-2.20;99.90;;;;;;5082080;28;20448;-80
2024/01/08 11:23:38;;;;;;;0.60;0.60;;;-2.20;99.90;;;;;;5080148;28;20411;-80
2024/01/08 11:26:09;;;;;;;2.77;1.17;;;-2.10;99.90;;;;;;5074507;28;20756;-80
2024/01/08 11:28:38;;;;;;;0.30;0.30;;;-2.10;99.90;;;;;;5077775;28;20480;-80
2024/01/08 11:31:25;;;;;;;0.40;0.40;;;-2.10;99.90;;;;;;5077269;28;20448;-80
2024/01/08 11:34:13;;;;;;;3.50;0.60;;;-2.20;99.90;;;;;;5077547;28;20416;-80
2024/01/08 11:36:46;;;;;;;0.40;0.40;;;-2.30;99.90;;;;;;5077205;28;20399;-80
2024/01/08 11:39:17;;;;;;;0.77;0.63;;;-2.30;99.90;;;;;;5077579;28;20468;-80
2024/01/08 11:41:45;;;;;;;0.50;0.50;;;-2.20;99.90;;;;;;5077010;28;20512;-80
2024/01/08 11:44:14;;;;;;;0.77;0.33;;;-2.20;99.90;;;;;;5076197;28;20770;-80
2024/01/08 11:46:42;;;;;;;0.40;0.40;;;-2.40;99.90;;;;;;5076467;28;20816;-80
2024/01/08 11:49:09;;;;;;;0.30;0.30;;;-2.30;99.90;;;;;;5076026;28;20485;-80
2024/01/08 11:51:39;;;;;;;0.30;0.30;;;-2.20;99.90;;;;;;5076510;28;20420;-80
2024/01/08 11:54:07;;;;;;;0.40;0.40;;;-2.20;99.90;;;;;;5075881;28;20773;-80
2024/01/08 11:56:34;;;;;;;1.17;0.90;;;-2.10;99.90;;;;;;5076037;28;20477;-80
2024/01/08 11:59:01;;;;;;;0.60;0.60;;;-2.10;99.90;;;;;;5075915;28;20461;-78
2024/01/08 12:01:28;;;;;;;0.30;0.30;;;-2.00;99.90;;;;;;5075540;28;20452;-78
2024/01/08 12:03:59;;;;;;;0.30;0.30;;;-1.90;99.90;;;;;;5075481;28;20824;-78
2024/01/08 12:06:27;;;;;;;1.80;1.70;;;-1.80;99.90;;;;;;5075527;28;20466;-78
2024/01/08 12:08:54;;;;;;;2.73;1.07;;;-1.80;99.90;;;;;;5075439;28;20455;-80
2024/01/08 12:11:24;;;;;;;1.33;0.53;;;-1.80;99.90;;;;;;5076136;28;20951;-80
2024/01/08 12:13:51;;;;;;;0.40;0.40;;;-1.80;99.90;;;;;;5084771;28;20828;-81
2024/01/08 12:16:18;;;;;;;0.30;0.30;;;-1.80;99.90;;;;;;5084195;28;20415;-80
2024/01/08 12:18:45;;;;;;;0.60;0.60;;;-1.80;99.90;;;;;;5079312;28;20972;-81
2024/01/08 12:21:13;;;;;;;0.40;0.40;;;-1.80;99.90;;;;;;5078493;28;20440;-81
2024/01/08 12:23:40;;;;;;;1.23;1.00;;;-1.80;99.90;;;;;;5077662;28;20415;-81
2024/01/08 12:26:07;;;;;;;2.20;1.03;;;-1.80;99.90;;;;;;5077419;28;20445;-80
2024/01/08 12:28:34;;;;;;;0.30;0.30;;;-1.70;99.90;;;;;;5076848;28;20826;-80
2024/01/08 12:31:01;;;;;;;0.40;0.40;;;-1.80;99.90;;;;;;5077284;28;20448;-80
2024/01/08 12:33:28;;;;;;;1.00;1.00;;;-1.90;99.90;;;;;;5076356;28;20420;-80
2024/01/08 12:35:56;;;;;;;1.57;1.17;;;-2.00;99.90;;;;;;5075773;28;20423;-81
2024/01/08 12:38:24;;;;;;;0.40;0.33;;;-1.90;99.90;;;;;;5075223;28;20464;-80
2024/01/08 12:40:52;;;;;;;0.73;0.70;;;-1.90;99.90;;;;;;5075377;28;20452;-80
2024/01/08 12:43:19;;;;;;;0.60;0.60;;;-1.90;99.90;;;;;;5075291;28;20793;-81
2024/01/08 12:45:47;;;;;;;0.97;0.50;;;-1.80;99.90;;;;;;5075288;28;20423;-80
2024/01/08 12:48:14;;;;;;;0.30;0.30;;;-1.70;99.90;;;;;;5074807;28;20809;-80
2024/01/08 12:50:41;;;;;;;0.83;0.83;;;-1.70;99.90;;;;;;5074986;28;20440;-80